Airfield :
LOGIN :

Register | Disclaimer

   EN    FR    IT 

 










Legend :    VFR   Marginal VFR   IFR   Intensive IFR   Very Intensive IFR
Visi :
Ceiling :
>= 8 km
>= 3000ft
5 to 8 km
1000 to 3000 ft
1500m to 5 km
500 to 1000 ft
800 to 1500m
200 to 500 ft
< 800m
< 200 ft
Symbols :   Thunderstorms  Fog  Heavy snow  Heavy precipitations  Wind > 20 kt
SIGMETs :     Misc.  Thunderstorms  Icing  Turbulence  Mountain Waves  Volcanic Ashes







- Airport Elevation : 170 ft
- IATA code : BGO


ENBR - Bergen , Flesland

CURRENT METAR :
  • 262050Z 33009KT 9999 FEW020 BKN150 08/04 Q1000 RMK WIND 1200FT 34012KT

EXPIRED METARs :
  • 262020Z 33009KT 9999 FEW020 BKN150 08/05 Q1000 RMK WIND 1200FT 34013KT
  • 261950Z 33008KT 9999 FEW020 BKN150 08/05 Q1001 RMK WIND 1200FT 33012KT
  • 261920Z 33008KT 9999 FEW040 BKN150 09/05 Q1001 RMK WIND 1200FT 34013KT
  • 261850Z 32008KT 290V350 9999 FEW040 BKN150 09/04 Q1001 NOSIG RMK WIND 1200FT 33014KT
  • 261820Z 33008KT 9999 FEW040 BKN150 09/04 Q1001 NOSIG RMK WIND 1200FT 34014KT

TAF TAF ENBR
Valid from the 26 at 18:00 until the 27 at 18:00 UTC


2618/2718 33008KT 9999 FEW020 SCT040
BECMG 2711/2713 34018KT
No reported NOTAMs for that airfield.



MET'MAP, your aeronautical weather chart ! - Copyright ORBIFLY December 2007 - Disclaimer

ORBIFLY MET'MAP TEAM :

Programming & Development : Alexandra Zaïnal
Concept & Development : Baudouin d'Aumeries
Co-Development & Prog : Marc-Olivier Méhu
Technical & hardware support : Manuel Goepfert

Contact : metmap@orbifly.com




SOURCES & CREDITS :

   NOAA